createdAt,value
2022-10-01T00:00:22.486Z,86.51
2022-10-01T00:00:56.463Z,87.07
2022-10-01T00:01:31.394Z,86.82
2022-10-01T00:02:04.139Z,87.04
2022-10-01T00:02:37.600Z,87.25
2022-10-01T00:03:12.563Z,87.05
2022-10-01T00:03:45.379Z,87.50
2022-10-01T00:04:17.515Z,87.31
2022-10-01T00:04:52.167Z,87.68
2022-10-01T00:05:24.458Z,87.33
2022-10-01T00:06:00.686Z,87.76
2022-10-01T00:06:32.847Z,87.42
2022-10-01T00:07:10.992Z,87.57
2022-10-01T00:07:45.308Z,87.91
2022-10-01T00:08:17.541Z,87.71
2022-10-01T00:08:53.357Z,88.10
2022-10-01T00:09:25.862Z,88.13
2022-10-01T00:09:57.993Z,87.83
2022-10-01T00:10:31.581Z,87.93
2022-10-01T00:11:12.131Z,87.61
2022-10-01T00:11:44.390Z,88.04
2022-10-01T00:12:16.822Z,87.84
2022-10-01T00:12:54.164Z,87.85
2022-10-01T00:13:26.278Z,87.98
2022-10-01T00:13:58.405Z,87.93
2022-10-01T00:14:33.080Z,88.13
2022-10-01T00:15:13.357Z,88.02
2022-10-01T00:15:45.697Z,87.98
2022-10-01T00:16:22.928Z,88.05
2022-10-01T00:16:55.186Z,87.87
2022-10-01T00:17:27.298Z,88.23
2022-10-01T00:18:02.180Z,87.98
2022-10-01T00:18:36.007Z,88.29
2022-10-01T00:19:12.281Z,88.26
2022-10-01T00:19:46.994Z,88.25
2022-10-01T00:20:19.601Z,88.18
2022-10-01T00:20:51.723Z,88.19
2022-10-01T00:21:29.557Z,88.23
2022-10-01T00:22:01.825Z,88.22
2022-10-01T00:22:36.342Z,88.45
2022-10-01T00:23:11.087Z,88.63
2022-10-01T00:23:43.445Z,88.38
2022-10-01T00:24:15.549Z,88.10
2022-10-01T00:24:50.902Z,88.49
2022-10-01T00:25:25.511Z,88.69
2022-10-01T00:26:08.517Z,88.32
2022-10-01T00:26:45.675Z,88.62
2022-10-01T00:27:18.226Z,88.24
2022-10-01T00:27:52.942Z,88.41
2022-10-01T00:28:27.780Z,88.35
2022-10-01T00:29:01.799Z,88.39
2022-10-01T00:29:34.113Z,88.12
2022-10-01T00:30:10.671Z,88.16
2022-10-01T00:30:47.250Z,88.27
2022-10-01T00:31:19.401Z,88.36
2022-10-01T00:31:54.201Z,88.17
2022-10-01T00:32:26.866Z,88.20
2022-10-01T00:32:58.966Z,88.69
2022-10-01T00:33:31.039Z,88.07
2022-10-01T00:34:06.620Z,88.24
2022-10-01T00:34:38.706Z,88.42
2022-10-01T00:35:10.913Z,88.22
2022-10-01T00:35:46.032Z,88.09
2022-10-01T00:36:18.169Z,88.37
2022-10-01T00:36:50.329Z,88.09
2022-10-01T00:37:25.082Z,88.10
2022-10-01T00:37:57.266Z,88.41
2022-10-01T00:38:29.405Z,88.47
2022-10-01T00:39:04.342Z,88.14
2022-10-01T00:39:36.582Z,88.06
2022-10-01T00:40:09.548Z,88.41
2022-10-01T00:40:44.207Z,88.29
2022-10-01T00:41:17.726Z,88.20
2022-10-01T00:41:50.035Z,88.24
2022-10-01T00:42:27.094Z,88.51
2022-10-01T00:43:01.818Z,88.09
2022-10-01T00:43:36.828Z,88.14
2022-10-01T00:44:44.249Z,88.03
2022-10-01T00:45:16.993Z,88.51
2022-10-01T00:45:49.777Z,88.53
2022-10-01T00:46:26.469Z,88.25
2022-10-01T00:47:06.231Z,88.55
2022-10-01T00:47:41.980Z,88.70
2022-10-01T00:48:14.193Z,88.59
2022-10-01T00:48:58.866Z,88.44
2022-10-01T00:49:33.806Z,88.52
2022-10-01T00:50:13.576Z,88.68
2022-10-01T00:50:49.971Z,88.15
2022-10-01T00:51:22.685Z,88.63
2022-10-01T00:51:58.085Z,88.69
2022-10-01T00:52:36.250Z,88.54
2022-10-01T00:53:12.548Z,88.57
2022-10-01T00:53:46.255Z,88.22
2022-10-01T00:54:25.577Z,88.15
2022-10-01T00:55:01.190Z,88.28
2022-10-01T00:55:36.500Z,88.28
2022-10-01T00:56:11.217Z,88.42
2022-10-01T00:56:45.208Z,88.17
2022-10-01T00:57:21.962Z,87.92
2022-10-01T00:57:58.115Z,88.32
2022-10-01T00:58:33.927Z,88.14
2022-10-01T00:59:06.720Z,88.16
2022-10-01T00:59:41.409Z,88.17
2022-10-01T01:00:14.985Z,87.70
2022-10-01T01:00:47.828Z,87.83
2022-10-01T01:01:24.379Z,87.98
2022-10-01T01:01:56.782Z,87.76
2022-10-01T01:02:28.991Z,87.95
2022-10-01T01:03:03.778Z,87.62
2022-10-01T01:03:35.989Z,87.65
2022-10-01T01:04:16.582Z,88.02
2022-10-01T01:04:51.500Z,87.88
2022-10-01T01:05:23.840Z,87.85
2022-10-01T01:05:55.938Z,87.76
2022-10-01T01:06:30.782Z,87.86
2022-10-01T01:07:05.242Z,87.59
2022-10-01T01:07:37.570Z,87.83
2022-10-01T01:08:13.566Z,87.54
2022-10-01T01:08:46.001Z,87.46
2022-10-01T01:09:18.079Z,87.49
2022-10-01T01:09:55.284Z,87.41
2022-10-01T01:10:34.250Z,87.68
2022-10-01T01:11:18.326Z,87.41
2022-10-01T01:12:01.515Z,87.31
2022-10-01T01:12:59.461Z,87.60
2022-10-01T01:13:43.891Z,87.64
2022-10-01T01:14:23.227Z,87.24
2022-10-01T01:15:12.747Z,87.48
2022-10-01T01:15:55.797Z,87.56
2022-10-01T01:16:34.561Z,87.22
2022-10-01T01:17:11.725Z,87.26
2022-10-01T01:17:56.247Z,87.09
2022-10-01T01:18:34.666Z,87.43
2022-10-01T01:19:20.984Z,87.13
2022-10-01T01:20:17.650Z,87.15
2022-10-01T01:21:03.897Z,87.54
2022-10-01T01:21:43.841Z,87.72
2022-10-01T01:22:18.575Z,87.45
2022-10-01T01:23:01.466Z,87.46
2022-10-01T01:24:06.134Z,87.57
2022-10-01T01:24:46.602Z,87.69
2022-10-01T01:25:22.462Z,87.45
2022-10-01T01:26:05.180Z,87.32
2022-10-01T01:26:48.365Z,87.72
2022-10-01T01:27:40.758Z,87.24
2022-10-01T01:28:22.781Z,87.60
2022-10-01T01:29:02.395Z,87.07
2022-10-01T01:29:42.369Z,86.96
2022-10-01T01:30:17.247Z,87.01
2022-10-01T01:30:53.379Z,87.35
2022-10-01T01:31:36.590Z,87.10
2022-10-01T01:32:15.000Z,87.36
2022-10-01T01:32:55.054Z,87.23
2022-10-01T01:33:31.106Z,87.21
2022-10-01T01:34:12.583Z,86.66
2022-10-01T01:34:52.554Z,86.87
2022-10-01T01:35:32.236Z,86.93
2022-10-01T01:36:08.174Z,87.30
2022-10-01T01:36:48.232Z,86.85
2022-10-01T01:37:26.865Z,86.95
2022-10-01T01:38:05.087Z,87.09
2022-10-01T01:38:44.495Z,86.74
2022-10-01T01:39:18.934Z,87.11
2022-10-01T01:39:58.063Z,86.89
2022-10-01T01:40:32.764Z,86.63
2022-10-01T01:41:08.195Z,87.03
2022-10-01T01:41:51.066Z,87.06
2022-10-01T01:42:29.348Z,86.69
2022-10-01T01:43:07.267Z,86.83
2022-10-01T01:43:47.577Z,86.88
2022-10-01T01:44:25.108Z,86.43
2022-10-01T01:45:03.617Z,86.87
2022-10-01T01:45:38.466Z,86.56
2022-10-01T01:46:13.388Z,86.52
2022-10-01T01:46:49.520Z,86.81
2022-10-01T01:47:26.541Z,86.71
2022-10-01T01:48:02.295Z,86.82
2022-10-01T01:48:38.576Z,86.84
2022-10-01T01:49:17.621Z,86.67
2022-10-01T01:49:52.741Z,86.40
2022-10-01T01:50:28.641Z,86.77
2022-10-01T01:51:07.498Z,86.71
2022-10-01T01:51:46.086Z,86.72
2022-10-01T01:52:18.665Z,86.97
2022-10-01T01:52:54.104Z,86.44
2022-10-01T01:53:26.353Z,86.89
2022-10-01T01:53:59.133Z,86.70
2022-10-01T01:54:35.632Z,86.89
2022-10-01T01:55:09.494Z,86.41
2022-10-01T01:55:43.286Z,86.45
2022-10-01T01:56:18.251Z,86.56
2022-10-01T01:56:51.241Z,86.61
2022-10-01T01:57:23.535Z,86.12
2022-10-01T01:58:00.108Z,86.43
2022-10-01T01:58:33.688Z,86.72
2022-10-01T01:59:08.731Z,86.12
2022-10-01T01:59:44.213Z,86.28
2022-10-01T02:00:16.370Z,85.94
2022-10-01T02:00:52.576Z,86.46
2022-10-01T02:01:35.207Z,86.32
2022-10-01T02:02:08.872Z,86.22
2022-10-01T02:02:50.395Z,86.51
2022-10-01T02:03:26.088Z,86.60
2022-10-01T02:03:58.758Z,86.43
2022-10-01T02:04:40.304Z,85.87
2022-10-01T02:05:16.156Z,86.29
2022-10-01T02:05:59.276Z,86.29
2022-10-01T02:06:42.891Z,86.11
2022-10-01T02:07:43.067Z,86.53
2022-10-01T02:08:31.890Z,86.59
2022-10-01T02:09:17.759Z,86.83
2022-10-01T02:09:56.805Z,86.74
2022-10-01T02:10:39.710Z,86.69
2022-10-01T02:11:29.733Z,86.67
2022-10-01T02:12:13.172Z,86.32
2022-10-01T02:13:00.178Z,86.32
2022-10-01T02:13:45.263Z,86.13
2022-10-01T02:14:28.733Z,86.20
2022-10-01T02:15:11.164Z,86.66
2022-10-01T02:15:59.848Z,86.39
2022-10-01T02:16:44.621Z,86.49
2022-10-01T02:17:28.162Z,86.47
2022-10-01T02:18:12.994Z,86.32
2022-10-01T02:18:53.398Z,86.34
2022-10-01T02:19:33.757Z,86.50
2022-10-01T02:20:15.640Z,86.35
2022-10-01T02:20:52.313Z,86.25
2022-10-01T02:21:31.745Z,86.28
2022-10-01T02:22:14.341Z,86.49
2022-10-01T02:22:52.881Z,86.56
2022-10-01T02:23:30.884Z,86.55
2022-10-01T02:24:14.501Z,86.60
2022-10-01T02:24:49.921Z,86.68
2022-10-01T02:25:29.214Z,86.03
2022-10-01T02:26:08.459Z,86.30
2022-10-01T02:26:43.648Z,86.24
2022-10-01T02:27:23.454Z,85.98
2022-10-01T02:28:01.625Z,86.17
2022-10-01T02:28:37.214Z,86.08
2022-10-01T02:29:17.798Z,86.23
2022-10-01T02:29:55.701Z,86.33
2022-10-01T02:30:30.361Z,86.08
2022-10-01T02:31:07.059Z,86.19
2022-10-01T02:31:41.500Z,85.96
2022-10-01T02:32:19.974Z,86.29
2022-10-01T02:32:53.543Z,86.21
2022-10-01T02:33:30.428Z,86.05
2022-10-01T02:34:12.223Z,86.51
2022-10-01T02:34:46.120Z,86.61
2022-10-01T02:35:20.449Z,86.28
2022-10-01T02:35:56.841Z,86.24
2022-10-01T02:36:31.587Z,86.60
2022-10-01T02:37:08.073Z,86.50
2022-10-01T02:37:45.474Z,86.36
2022-10-01T02:38:19.197Z,86.76
2022-10-01T02:38:54.601Z,86.44
2022-10-01T02:39:32.621Z,86.85
2022-10-01T02:40:09.285Z,86.83
2022-10-01T02:40:47.174Z,86.36
2022-10-01T02:41:25.071Z,86.76
2022-10-01T02:41:59.769Z,86.47
2022-10-01T02:42:37.232Z,87.04
2022-10-01T02:43:14.125Z,86.90
2022-10-01T02:43:53.873Z,86.43
2022-10-01T02:44:38.162Z,86.94
2022-10-01T02:45:14.361Z,86.75
2022-10-01T02:45:51.827Z,86.89
2022-10-01T02:46:33.375Z,86.66
2022-10-01T02:47:10.763Z,86.87
2022-10-01T02:47:47.932Z,86.93
2022-10-01T02:48:22.614Z,86.69
2022-10-01T02:48:55.763Z,86.56
2022-10-01T02:49:30.897Z,86.76
2022-10-01T02:50:07.159Z,86.47
2022-10-01T02:50:48.171Z,86.67
2022-10-01T02:51:29.036Z,86.95
2022-10-01T02:52:11.655Z,86.77
2022-10-01T02:52:49.845Z,86.58
2022-10-01T02:53:28.540Z,86.75
2022-10-01T02:54:09.654Z,86.75
2022-10-01T02:54:49.445Z,86.89
2022-10-01T02:55:29.931Z,86.81
2022-10-01T02:56:04.731Z,86.46
2022-10-01T02:56:56.111Z,86.91
2022-10-01T02:57:29.682Z,86.52
2022-10-01T02:58:01.949Z,86.86
2022-10-01T02:58:34.261Z,86.62
2022-10-01T02:59:07.687Z,86.38
2022-10-01T02:59:42.437Z,86.80
2022-10-01T03:00:21.457Z,86.38
2022-10-01T03:00:53.725Z,86.82
2022-10-01T03:01:28.646Z,86.49
2022-10-01T03:02:00.995Z,86.71
2022-10-01T03:02:33.485Z,86.51
2022-10-01T03:03:08.479Z,86.71
2022-10-01T03:03:43.131Z,86.36
2022-10-01T03:04:15.216Z,86.36
2022-10-01T03:04:48.136Z,86.42
2022-10-01T03:05:23.311Z,86.06
2022-10-01T03:05:55.447Z,86.14
2022-10-01T03:06:28.130Z,86.54
2022-10-01T03:07:03.939Z,86.33
2022-10-01T03:07:40.182Z,86.31
2022-10-01T03:08:12.336Z,86.67
2022-10-01T03:08:44.403Z,86.38
2022-10-01T03:09:16.506Z,86.29
2022-10-01T03:09:52.163Z,86.51
2022-10-01T03:10:24.248Z,86.59
2022-10-01T03:10:56.392Z,86.58
2022-10-01T03:11:31.400Z,86.52
2022-10-01T03:12:04.207Z,86.71
2022-10-01T03:12:36.572Z,86.46
2022-10-01T03:13:11.230Z,86.28
2022-10-01T03:13:43.895Z,86.25
2022-10-01T03:14:16.025Z,86.59
2022-10-01T03:14:50.903Z,86.38
2022-10-01T03:15:25.571Z,86.38
2022-10-01T03:15:57.776Z,86.25
2022-10-01T03:16:32.598Z,86.43
2022-10-01T03:17:04.751Z,86.03
2022-10-01T03:17:37.374Z,86.02
2022-10-01T03:18:12.027Z,86.00
2022-10-01T03:18:44.116Z,86.49
2022-10-01T03:19:16.223Z,85.83
2022-10-01T03:19:51.088Z,85.98
2022-10-01T03:20:23.336Z,86.46
2022-10-01T03:20:55.459Z,85.97
2022-10-01T03:21:30.224Z,86.33
2022-10-01T03:22:02.825Z,86.28
2022-10-01T03:22:34.969Z,85.74
2022-10-01T03:23:09.627Z,85.75
2022-10-01T03:23:41.718Z,85.79
2022-10-01T03:24:14.069Z,85.95
2022-10-01T03:24:46.165Z,86.00
2022-10-01T03:25:20.899Z,85.71
2022-10-01T03:25:56.760Z,85.49
2022-10-01T03:26:28.902Z,85.43
2022-10-01T03:27:03.860Z,85.67
2022-10-01T03:27:35.935Z,85.20
2022-10-01T03:28:08.108Z,85.35
2022-10-01T03:28:40.342Z,85.59
2022-10-01T03:29:15.277Z,85.32
2022-10-01T03:29:48.250Z,85.30
2022-10-01T03:30:22.904Z,85.03
2022-10-01T03:31:08.121Z,85.22
2022-10-01T03:31:40.338Z,84.94
2022-10-01T03:32:15.303Z,85.27
2022-10-01T03:32:47.437Z,84.82
2022-10-01T03:33:19.536Z,85.18
2022-10-01T03:33:54.222Z,84.93
2022-10-01T03:34:26.420Z,84.83
2022-10-01T03:34:58.786Z,84.85
2022-10-01T03:35:33.462Z,85.13
2022-10-01T03:36:05.788Z,85.07
2022-10-01T03:36:40.562Z,84.65
2022-10-01T03:37:12.728Z,84.50
2022-10-01T03:37:47.967Z,84.74
2022-10-01T03:38:20.036Z,84.89
2022-10-01T03:38:52.187Z,84.56
2022-10-01T03:39:26.959Z,84.63
2022-10-01T03:39:59.209Z,84.95
2022-10-01T03:40:33.505Z,84.71
2022-10-01T03:41:08.555Z,84.52
2022-10-01T03:41:40.799Z,84.42
2022-10-01T03:42:12.907Z,84.63
2022-10-01T03:42:47.780Z,84.63
2022-10-01T03:43:19.875Z,84.86
2022-10-01T03:43:52.063Z,84.49
2022-10-01T03:44:28.108Z,84.82
2022-10-01T03:45:00.298Z,84.53
2022-10-01T03:45:32.405Z,84.87
2022-10-01T03:46:07.129Z,84.37
2022-10-01T03:46:41.938Z,84.73
2022-10-01T03:47:14.401Z,84.68
2022-10-01T03:47:52.678Z,84.33
2022-10-01T03:48:27.506Z,84.56
2022-10-01T03:49:01.002Z,84.42
2022-10-01T03:49:34.433Z,84.47
2022-10-01T03:50:10.925Z,84.34
2022-10-01T03:50:43.014Z,84.73
2022-10-01T03:51:19.775Z,84.37
2022-10-01T03:51:54.666Z,84.53
2022-10-01T03:52:26.830Z,84.26
2022-10-01T03:52:59.101Z,84.32
2022-10-01T03:53:31.820Z,84.79
2022-10-01T03:54:07.270Z,84.52
2022-10-01T03:54:39.583Z,84.40
2022-10-01T03:55:12.157Z,84.37
2022-10-01T03:55:46.817Z,84.20
2022-10-01T03:56:18.950Z,84.67
2022-10-01T03:56:51.006Z,84.19
2022-10-01T03:57:25.645Z,84.44
2022-10-01T03:57:58.743Z,84.18
2022-10-01T03:58:30.878Z,84.09
2022-10-01T03:59:05.647Z,84.13
2022-10-01T03:59:37.773Z,84.48
2022-10-01T04:00:12.097Z,84.30
2022-10-01T04:00:47.338Z,84.00
2022-10-01T04:01:22.580Z,83.93
2022-10-01T04:01:57.719Z,83.85
2022-10-01T04:02:30.396Z,84.25
2022-10-01T04:03:02.657Z,84.39
2022-10-01T04:03:34.818Z,83.94
2022-10-01T04:04:10.019Z,83.80
2022-10-01T04:04:42.148Z,83.86
2022-10-01T04:05:14.894Z,83.82
2022-10-01T04:05:49.655Z,83.93
2022-10-01T04:06:21.768Z,83.84
2022-10-01T04:06:53.855Z,83.90
2022-10-01T04:07:28.546Z,83.80
2022-10-01T04:08:01.171Z,84.11
2022-10-01T04:08:33.713Z,83.79
2022-10-01T04:09:09.728Z,84.19
2022-10-01T04:09:41.863Z,83.99
2022-10-01T04:10:14.228Z,83.72
2022-10-01T04:10:46.307Z,84.08
2022-10-01T04:11:21.466Z,84.02
2022-10-01T04:11:53.844Z,84.00
2022-10-01T04:12:26.130Z,83.80
2022-10-01T04:12:58.205Z,83.99
2022-10-01T04:13:32.882Z,83.93
2022-10-01T04:14:05.328Z,83.43
2022-10-01T04:14:37.377Z,83.51
2022-10-01T04:15:13.137Z,83.70
2022-10-01T04:15:45.381Z,83.54
2022-10-01T04:16:20.314Z,83.81
2022-10-01T04:16:55.009Z,83.40
2022-10-01T04:17:27.453Z,83.56
2022-10-01T04:18:02.379Z,83.42
2022-10-01T04:18:34.785Z,83.36
2022-10-01T04:19:06.885Z,83.37
2022-10-01T04:19:41.541Z,83.29
2022-10-01T04:20:13.758Z,83.52
2022-10-01T04:20:45.846Z,83.71
2022-10-01T04:21:20.543Z,83.62
2022-10-01T04:21:52.629Z,83.22
2022-10-01T04:22:24.755Z,83.27
2022-10-01T04:22:56.829Z,83.35
2022-10-01T04:23:31.515Z,83.16
2022-10-01T04:24:05.288Z,83.38
2022-10-01T04:24:37.363Z,83.49
2022-10-01T04:25:10.987Z,83.29
2022-10-01T04:25:45.758Z,83.26
2022-10-01T04:26:19.231Z,83.39
2022-10-01T04:26:51.419Z,83.35
2022-10-01T04:27:26.393Z,83.15
2022-10-01T04:28:00.250Z,83.13
2022-10-01T04:28:32.685Z,82.91
2022-10-01T04:29:07.533Z,83.06
2022-10-01T04:29:40.471Z,83.31
2022-10-01T04:30:12.640Z,83.00
2022-10-01T04:30:48.706Z,83.21
2022-10-01T04:31:27.234Z,82.74
2022-10-01T04:32:03.666Z,82.65
2022-10-01T04:32:38.775Z,83.04
2022-10-01T04:33:13.099Z,82.85
2022-10-01T04:33:45.738Z,82.74
2022-10-01T04:34:40.478Z,82.96
2022-10-01T04:35:12.899Z,82.78
2022-10-01T04:35:45.268Z,83.07
2022-10-01T04:36:20.361Z,82.83
2022-10-01T04:36:52.410Z,82.95
2022-10-01T04:37:24.672Z,82.69
2022-10-01T04:38:02.052Z,82.65
2022-10-01T04:38:34.671Z,83.02
2022-10-01T04:39:06.925Z,82.97
2022-10-01T04:39:41.724Z,83.25
2022-10-01T04:40:14.066Z,82.93
2022-10-01T04:40:46.138Z,82.90
2022-10-01T04:41:21.042Z,83.29
2022-10-01T04:41:53.135Z,83.19
2022-10-01T04:42:25.318Z,83.18
2022-10-01T04:43:00.508Z,83.17
2022-10-01T04:43:32.756Z,83.24
2022-10-01T04:44:05.399Z,83.00
2022-10-01T04:44:40.062Z,83.04
2022-10-01T04:45:12.425Z,82.84
2022-10-01T04:45:44.499Z,82.71
2022-10-01T04:46:19.328Z,82.76
2022-10-01T04:46:51.554Z,83.16
2022-10-01T04:47:26.302Z,83.27
2022-10-01T04:48:01.201Z,82.93
2022-10-01T04:48:33.345Z,82.96
2022-10-01T04:49:05.731Z,82.78
2022-10-01T04:49:40.442Z,83.07
2022-10-01T04:50:12.589Z,82.86
2022-10-01T04:50:45.454Z,82.85
2022-10-01T04:51:20.363Z,82.97
2022-10-01T04:51:52.503Z,82.60
2022-10-01T04:52:24.643Z,82.94
2022-10-01T04:52:59.609Z,82.94
2022-10-01T04:53:31.844Z,82.61
2022-10-01T04:54:04.100Z,82.96
2022-10-01T04:54:36.333Z,82.69
2022-10-01T04:55:12.182Z,82.90
2022-10-01T04:55:44.361Z,82.46
2022-10-01T04:56:16.481Z,82.65
2022-10-01T04:56:51.217Z,82.41
2022-10-01T04:57:23.395Z,82.58
2022-10-01T04:57:55.559Z,82.54
2022-10-01T04:58:31.536Z,82.53
2022-10-01T04:59:03.625Z,82.43
2022-10-01T04:59:35.787Z,82.60
2022-10-01T05:00:14.250Z,82.34
2022-10-01T05:00:46.372Z,82.79
2022-10-01T05:01:18.532Z,82.84
2022-10-01T05:01:53.322Z,82.33
2022-10-01T05:02:29.382Z,82.85
2022-10-01T05:03:01.615Z,82.72
2022-10-01T05:03:36.944Z,82.60
2022-10-01T05:04:09.204Z,82.64
2022-10-01T05:04:41.541Z,82.96
2022-10-01T05:05:13.960Z,82.37
2022-10-01T05:05:48.635Z,82.40
2022-10-01T05:06:20.748Z,82.56
2022-10-01T05:06:52.833Z,83.03
2022-10-01T05:07:27.523Z,82.71
2022-10-01T05:07:59.693Z,82.96
2022-10-01T05:08:34.359Z,82.95
2022-10-01T05:09:06.476Z,82.68
2022-10-01T05:09:38.549Z,82.64
2022-10-01T05:10:15.296Z,82.51
2022-10-01T05:10:47.572Z,82.15
2022-10-01T05:11:19.995Z,82.18
2022-10-01T05:11:54.669Z,82.27
2022-10-01T05:12:27.698Z,82.62
2022-10-01T05:13:01.499Z,82.26
2022-10-01T05:13:36.182Z,82.69
2022-10-01T05:14:08.675Z,82.26
2022-10-01T05:14:40.821Z,82.37
2022-10-01T05:15:15.829Z,82.21
2022-10-01T05:15:52.396Z,82.12
2022-10-01T05:16:27.225Z,82.36
2022-10-01T05:16:59.384Z,82.07
2022-10-01T05:17:34.564Z,82.38
2022-10-01T05:18:09.306Z,82.24
2022-10-01T05:18:41.404Z,82.45
2022-10-01T05:19:13.934Z,82.30
2022-10-01T05:19:49.061Z,82.28
2022-10-01T05:20:23.181Z,82.07
2022-10-01T05:20:57.827Z,81.95
2022-10-01T05:21:29.903Z,82.07
2022-10-01T05:22:01.997Z,82.20
2022-10-01T05:22:34.439Z,82.51
2022-10-01T05:23:09.087Z,82.26
2022-10-01T05:23:41.645Z,82.11
2022-10-01T05:24:13.823Z,82.45
2022-10-01T05:24:46.002Z,82.35
2022-10-01T05:25:21.848Z,82.30
2022-10-01T05:25:54.048Z,82.29
2022-10-01T05:26:26.117Z,82.19
2022-10-01T05:27:00.792Z,82.35
2022-10-01T05:27:39.094Z,82.11
2022-10-01T05:28:11.594Z,82.13
2022-10-01T05:28:47.051Z,82.51
2022-10-01T05:29:19.129Z,82.19
2022-10-01T05:29:51.383Z,82.37
2022-10-01T05:30:26.719Z,81.84
2022-10-01T05:31:00.763Z,82.23
2022-10-01T05:31:33.741Z,82.21
2022-10-01T05:32:08.731Z,82.08
2022-10-01T05:32:43.405Z,82.39
2022-10-01T05:33:15.540Z,82.29
2022-10-01T05:33:50.195Z,82.22
2022-10-01T05:34:22.265Z,81.79
2022-10-01T05:34:55.122Z,82.30
2022-10-01T05:35:30.170Z,82.10
2022-10-01T05:36:04.094Z,82.37
2022-10-01T05:36:36.402Z,81.88
2022-10-01T05:37:12.101Z,81.65
2022-10-01T05:37:44.184Z,81.92
2022-10-01T05:38:16.302Z,81.94
2022-10-01T05:38:52.468Z,81.51
2022-10-01T05:39:24.609Z,81.93
2022-10-01T05:39:56.673Z,81.99
2022-10-01T05:40:33.279Z,82.09
2022-10-01T05:41:05.755Z,81.80
2022-10-01T05:41:38.264Z,81.66
2022-10-01T05:42:10.387Z,82.18
2022-10-01T05:42:48.888Z,81.86
2022-10-01T05:43:21.076Z,81.92
2022-10-01T05:43:53.297Z,81.75
2022-10-01T05:44:28.463Z,81.75
2022-10-01T05:45:00.531Z,81.86
2022-10-01T05:45:33.062Z,82.11
2022-10-01T05:46:08.218Z,82.17
2022-10-01T05:46:40.659Z,82.08
2022-10-01T05:47:14.034Z,81.83
2022-10-01T05:47:51.832Z,81.95
2022-10-01T05:48:23.950Z,81.74
2022-10-01T05:48:56.171Z,81.87
2022-10-01T05:49:30.815Z,82.27
2022-10-01T05:50:02.887Z,82.07
2022-10-01T05:50:39.284Z,82.17
2022-10-01T05:51:16.340Z,82.05
2022-10-01T05:51:49.800Z,81.60
2022-10-01T05:52:21.886Z,81.76
2022-10-01T05:52:56.918Z,81.48
2022-10-01T05:53:29.026Z,81.55
2022-10-01T05:54:02.221Z,81.85
2022-10-01T05:54:36.864Z,81.23
2022-10-01T05:55:09.435Z,81.63
2022-10-01T05:55:41.607Z,81.61
2022-10-01T05:56:16.312Z,80.97
2022-10-01T05:56:48.713Z,81.20
2022-10-01T05:57:20.821Z,81.20
2022-10-01T05:58:00.027Z,80.86
2022-10-01T05:58:32.185Z,81.17
2022-10-01T05:59:04.663Z,81.02
2022-10-01T05:59:40.309Z,81.24
2022-10-01T06:00:13.828Z,81.09
2022-10-01T06:00:46.030Z,80.81
2022-10-01T06:01:20.758Z,80.86
2022-10-01T06:01:52.949Z,80.93
2022-10-01T06:02:25.228Z,80.87
2022-10-01T06:03:05.008Z,80.93
2022-10-01T06:03:38.925Z,80.84
2022-10-01T06:04:11.105Z,81.27
2022-10-01T06:04:45.853Z,81.48
2022-10-01T06:05:18.004Z,81.48
2022-10-01T06:05:50.113Z,81.54
2022-10-01T06:06:22.771Z,81.13
2022-10-01T06:06:57.565Z,81.13
2022-10-01T06:07:31.710Z,81.20
2022-10-01T06:08:06.233Z,81.36
2022-10-01T06:08:40.937Z,81.41
2022-10-01T06:09:13.083Z,81.67
2022-10-01T06:09:45.325Z,81.66
2022-10-01T06:10:20.841Z,81.11
2022-10-01T06:10:59.795Z,81.62
2022-10-01T06:11:32.200Z,81.61
2022-10-01T06:12:10.754Z,81.65
2022-10-01T06:12:43.407Z,81.73
2022-10-01T06:13:17.897Z,81.25
2022-10-01T06:13:53.466Z,81.66
2022-10-01T06:14:25.550Z,81.74
2022-10-01T06:14:57.639Z,81.19
2022-10-01T06:15:37.894Z,81.69
2022-10-01T06:16:09.905Z,81.38
2022-10-01T06:16:42.138Z,81.47
2022-10-01T06:17:16.866Z,81.48
2022-10-01T06:17:48.961Z,81.27
2022-10-01T06:18:27.452Z,81.54
2022-10-01T06:18:59.620Z,81.16
2022-10-01T06:19:31.714Z,81.55
2022-10-01T06:20:06.810Z,81.28
2022-10-01T06:20:39.698Z,81.44
2022-10-01T06:21:14.492Z,81.14
2022-10-01T06:21:46.692Z,81.52
2022-10-01T06:22:18.834Z,80.90
2022-10-01T06:22:58.026Z,80.54
2022-10-01T06:23:30.098Z,81.14
2022-10-01T06:24:02.256Z,80.70
2022-10-01T06:24:36.935Z,80.91
2022-10-01T06:25:10.368Z,80.23
2022-10-01T06:25:43.743Z,80.41
2022-10-01T06:26:18.568Z,80.42
2022-10-01T06:26:50.695Z,80.69
2022-10-01T06:27:22.787Z,80.50
2022-10-01T06:27:58.142Z,80.25
2022-10-01T06:28:33.003Z,79.95
2022-10-01T06:29:05.278Z,79.79
2022-10-01T06:29:37.415Z,79.52
2022-10-01T06:30:14.229Z,79.56
2022-10-01T06:30:46.793Z,78.98
2022-10-01T06:31:19.749Z,79.30
2022-10-01T06:31:54.679Z,79.09
2022-10-01T06:32:28.217Z,79.29
2022-10-01T06:33:04.369Z,79.07
2022-10-01T06:33:41.590Z,79.30
2022-10-01T06:34:13.759Z,79.12
2022-10-01T06:34:46.125Z,79.25
2022-10-01T06:35:20.941Z,79.17
2022-10-01T06:35:53.438Z,79.52
2022-10-01T06:36:28.203Z,79.36
2022-10-01T06:37:00.304Z,78.73
2022-10-01T06:37:36.479Z,78.93
2022-10-01T06:38:11.262Z,78.74
2022-10-01T06:38:43.484Z,79.11
2022-10-01T06:39:18.217Z,78.61
2022-10-01T06:39:50.431Z,78.84
2022-10-01T06:40:22.518Z,78.35
2022-10-01T06:40:58.204Z,78.51
2022-10-01T06:41:30.294Z,78.36
2022-10-01T06:42:02.366Z,78.47
2022-10-01T06:42:37.067Z,78.24
2022-10-01T06:43:09.810Z,78.14
2022-10-01T06:43:41.906Z,78.38
2022-10-01T06:44:16.724Z,77.94
2022-10-01T06:44:48.801Z,78.16
2022-10-01T06:45:20.873Z,77.88
2022-10-01T06:45:55.691Z,77.97
2022-10-01T06:46:29.026Z,77.94
2022-10-01T06:47:01.126Z,78.03
2022-10-01T06:47:35.854Z,78.36
2022-10-01T06:48:08.583Z,77.88
2022-10-01T06:48:43.256Z,78.26
2022-10-01T06:49:20.647Z,78.20
2022-10-01T06:49:52.746Z,77.94
2022-10-01T06:50:25.739Z,78.09
2022-10-01T06:51:01.234Z,77.55
2022-10-01T06:51:48.443Z,77.60
2022-10-01T06:52:35.657Z,77.56
2022-10-01T06:53:07.896Z,77.58
2022-10-01T06:53:40.110Z,76.99
2022-10-01T06:54:15.019Z,76.91
2022-10-01T06:54:47.113Z,76.64
2022-10-01T06:55:20.910Z,76.82
2022-10-01T06:55:55.636Z,76.79
2022-10-01T06:56:27.718Z,76.36
2022-10-01T06:56:59.805Z,76.15
2022-10-01T06:57:34.485Z,76.15
2022-10-01T06:58:12.885Z,76.09
2022-10-01T06:58:47.547Z,75.85
2022-10-01T06:59:19.707Z,75.98
2022-10-01T06:59:52.185Z,76.32
2022-10-01T07:00:27.806Z,76.16
2022-10-01T07:01:01.604Z,75.84
2022-10-01T07:01:36.867Z,76.13
2022-10-01T07:02:21.369Z,75.65
2022-10-01T07:02:54.336Z,75.45
2022-10-01T07:03:29.063Z,75.66
2022-10-01T07:04:03.881Z,75.60
2022-10-01T07:04:36.113Z,75.44
2022-10-01T07:05:12.517Z,75.50
2022-10-01T07:05:44.956Z,74.93
2022-10-01T07:06:19.630Z,74.98
2022-10-01T07:06:52.297Z,75.03
2022-10-01T07:07:28.206Z,74.59
2022-10-01T07:08:04.965Z,74.83
2022-10-01T07:08:37.116Z,74.36
2022-10-01T07:09:09.285Z,74.67
2022-10-01T07:09:41.438Z,74.10
2022-10-01T07:10:16.296Z,74.63
2022-10-01T07:10:48.394Z,74.22
2022-10-01T07:11:24.143Z,74.12
2022-10-01T07:11:57.559Z,74.00
2022-10-01T07:12:29.631Z,74.27
2022-10-01T07:13:09.885Z,73.59
2022-10-01T07:13:42.060Z,73.75
2022-10-01T07:14:14.443Z,73.05
2022-10-01T07:14:49.206Z,72.99
2022-10-01T07:15:23.006Z,73.11
2022-10-01T07:15:57.701Z,72.87
2022-10-01T07:16:29.811Z,72.60
2022-10-01T07:17:01.959Z,72.57
2022-10-01T07:17:37.050Z,72.47
2022-10-01T07:18:09.716Z,72.83
2022-10-01T07:18:44.478Z,72.51
2022-10-01T07:19:19.304Z,72.18
2022-10-01T07:19:51.484Z,71.87
2022-10-01T07:20:23.619Z,71.83
2022-10-01T07:20:59.608Z,71.54
2022-10-01T07:21:32.150Z,71.67
2022-10-01T07:22:04.499Z,71.12
2022-10-01T07:22:39.533Z,70.68
2022-10-01T07:23:13.694Z,70.50
2022-10-01T07:23:45.801Z,70.42
2022-10-01T07:24:20.601Z,70.44
2022-10-01T07:24:52.737Z,69.92
2022-10-01T07:25:25.360Z,70.26
2022-10-01T07:26:00.073Z,69.65
2022-10-01T07:26:32.324Z,69.49
2022-10-01T07:27:07.392Z,69.74
2022-10-01T07:27:42.844Z,69.98
2022-10-01T07:28:18.450Z,70.12
2022-10-01T07:28:53.351Z,70.00
2022-10-01T07:29:25.725Z,69.68
2022-10-01T07:29:59.190Z,70.13
2022-10-01T07:30:34.257Z,70.12
2022-10-01T07:31:11.404Z,69.36
2022-10-01T07:31:46.128Z,69.44
2022-10-01T07:32:18.213Z,69.22